Portada
METAR-TAF:

METAR-TAF

Aeroports :

Luang Namtha, Laos

latitud: 20-57-38N, longitud: 101-24-09E, altitud: 600 m

Observació

L'informe es va fer fa 2 hores i 6 minuts, a les 00:00 UTC
Vent 2 kt del Nord-Est
Temperatura 20°C
Humitat 100%
Pressió 1020 hPa
Visibilitat: 5000 m
Cel ennuvolat a una alçada de 1000 ft
Cel cobert a una alçada de 9000 ft
boirina

METAR: VLLN 140000Z 04002KT 5000 BR BKN010 OVC090 20/20 Q1020 NOSIG

Hora: 07:36 (02:06 UTC)

Pronòstic

L'informe es va fer fa 3 hores i 6 minuts, a les 23:00 UTC
Pronòstic vàlid del 14 a les 00 UTC al 14 a les 24 UTC
Vent 4 kt del Nord/Nord-Oest
Visibilitat: 2000 m
Núvols disperses a una alçada de 1000 ft
Cel ennuvolat a una alçada de 9000 ft
boirina
Temporalment
l' 14 a les 05 UTC al 14 a les 10 UTC
Visibilitat: 5000 m
Escasses núvols a una alçada de 2000 ft
Cel ennuvolat a una alçada de 10000 ft
boirina

TAF: VLLN 132300Z 1400/1424 34004KT 2000 BR SCT010 BKN090 TEMPO 1405/1410 5000 BR FEW020 BKN100

Observacions i pronòstics meteorològics de més de 4000 aeroports (METAR i TAF).

Les estacions disponibles són els punts grocs i vermells al mapa.

Posi el ratolí al punt desitjat per veure el nom de l'estació.

Feu clic per veure les observacions i els pronòstics meteorològics.

Per canviar el mapa: feu clic els botons verds amb una creu de color negre per apropar; al botó verd amb un guió per allunyar la imatge; o en les fletxes verdes per a mapes adjacents.


METAR-TAF: